Time;durP1;ratioP1;P1;durP2;ratioP2;P2;SDS_P1;SDS_P2;PMS_P1;PMS_P2;Temp;Humidity;BMP_temperature;BMP_pressure;BME280_temperature;BME280_humidity;BME280_pressure;Samples;Min_cycle;Max_cycle;Signal;HPM_P1;HPM_P2
2024/02/10 00:01:39;;;;;;;15.13;5.13;;;12.60;99.90;;;;;;5055033;28;20446;-58
2024/02/10 00:04:07;;;;;;;8.37;5.80;;;12.60;99.90;;;;;;5055195;28;20445;-57
2024/02/10 00:06:36;;;;;;;12.87;7.10;;;12.60;99.90;;;;;;5054901;28;20465;-58
2024/02/10 00:09:03;;;;;;;7.77;5.60;;;12.60;99.90;;;;;;5055044;28;20821;-58
2024/02/10 00:11:31;;;;;;;8.80;6.13;;;12.60;99.90;;;;;;5055218;28;20516;-57
2024/02/10 00:13:58;;;;;;;6.90;6.20;;;12.60;99.90;;;;;;5055004;28;20447;-58
2024/02/10 00:16:26;;;;;;;10.40;6.27;;;12.60;99.90;;;;;;5054959;28;20559;-59
2024/02/10 00:18:53;;;;;;;9.10;6.87;;;12.60;99.90;;;;;;5054900;28;20912;-58
2024/02/10 00:21:22;;;;;;;11.83;7.67;;;12.60;99.90;;;;;;5054906;28;20437;-59
2024/02/10 00:23:48;;;;;;;8.77;6.70;;;12.60;99.90;;;;;;5055077;28;20452;-58
2024/02/10 00:26:21;;;;;;;6.60;5.87;;;12.60;99.90;;;;;;5054932;28;20477;-58
2024/02/10 00:28:48;;;;;;;9.00;6.00;;;12.60;99.90;;;;;;5054803;28;20517;-58
2024/02/10 00:31:15;;;;;;;7.30;6.40;;;12.60;99.90;;;;;;5054683;28;20507;-58
2024/02/10 00:33:45;;;;;;;9.97;6.40;;;12.60;99.90;;;;;;5054571;28;20449;-58
2024/02/10 00:36:12;;;;;;;11.10;6.20;;;12.60;99.90;;;;;;5054629;28;20461;-58
2024/02/10 00:38:42;;;;;;;7.60;6.37;;;12.60;99.90;;;;;;5053683;28;20449;-58
2024/02/10 00:41:10;;;;;;;8.13;5.60;;;12.50;99.90;;;;;;5054442;28;20560;-58
2024/02/10 00:43:42;;;;;;;8.73;5.40;;;12.50;99.90;;;;;;5054421;28;20441;-57
2024/02/10 00:46:09;;;;;;;9.47;6.73;;;12.50;99.90;;;;;;5054373;28;20481;-59
2024/02/10 00:48:36;;;;;;;12.87;6.33;;;12.50;99.90;;;;;;5055519;28;20974;-57
2024/02/10 00:51:04;;;;;;;13.60;7.53;;;12.50;99.90;;;;;;5058449;28;20442;-57
2024/02/10 00:53:31;;;;;;;13.83;6.90;;;12.40;99.90;;;;;;5056977;28;20924;-58
2024/02/10 00:55:59;;;;;;;8.47;6.23;;;12.40;99.90;;;;;;5055631;28;20450;-59
2024/02/10 00:58:28;;;;;;;8.53;5.37;;;12.50;99.90;;;;;;5054592;28;20507;-57
2024/02/10 01:00:56;;;;;;;10.27;5.90;;;12.50;99.90;;;;;;5055053;28;20481;-57
2024/02/10 01:03:23;;;;;;;8.00;6.90;;;12.50;99.90;;;;;;5054358;28;20457;-57
2024/02/10 01:05:50;;;;;;;8.80;6.70;;;12.50;99.90;;;;;;5054723;28;20556;-57
2024/02/10 01:08:17;;;;;;;8.77;6.50;;;12.40;99.90;;;;;;5054543;28;20465;-57
2024/02/10 01:10:45;;;;;;;10.27;6.17;;;12.50;99.90;;;;;;5054143;28;20437;-57
2024/02/10 01:13:13;;;;;;;8.60;6.07;;;12.40;99.90;;;;;;5054753;28;20449;-57
2024/02/10 01:15:40;;;;;;;9.73;6.30;;;12.50;99.90;;;;;;5054327;28;20814;-58
2024/02/10 01:18:09;;;;;;;6.40;5.50;;;12.50;99.90;;;;;;5053924;28;20487;-58
2024/02/10 01:20:36;;;;;;;9.33;5.87;;;12.50;99.90;;;;;;5053657;28;20573;-57
2024/02/10 01:23:03;;;;;;;8.20;5.50;;;12.50;99.90;;;;;;5054341;28;20449;-57
2024/02/10 01:25:31;;;;;;;10.23;5.93;;;12.50;99.90;;;;;;5053820;28;20464;-57
2024/02/10 01:27:58;;;;;;;7.33;5.40;;;12.50;99.90;;;;;;5054203;28;20470;-58
2024/02/10 01:30:26;;;;;;;7.57;5.40;;;12.50;99.90;;;;;;5053589;28;20928;-57
2024/02/10 01:32:57;;;;;;;9.60;5.93;;;12.50;99.90;;;;;;5053865;28;20468;-57
2024/02/10 01:35:24;;;;;;;8.83;6.40;;;12.50;99.90;;;;;;5053914;28;20464;-57
2024/02/10 01:37:51;;;;;;;8.03;5.80;;;12.50;99.90;;;;;;5053999;28;20560;-57
2024/02/10 01:40:18;;;;;;;5.70;5.17;;;12.50;99.90;;;;;;5053744;28;20477;-57
2024/02/10 01:42:45;;;;;;;7.60;5.27;;;12.50;99.90;;;;;;5053712;28;20499;-57
2024/02/10 01:45:13;;;;;;;9.93;6.37;;;12.50;99.90;;;;;;5053651;28;20456;-57
2024/02/10 01:47:43;;;;;;;8.30;5.17;;;12.50;99.90;;;;;;5053708;28;20473;-57
2024/02/10 01:50:12;;;;;;;7.97;5.70;;;12.50;99.90;;;;;;5053712;28;20429;-57
2024/02/10 01:52:39;;;;;;;12.07;5.63;;;12.50;99.90;;;;;;5053862;28;20461;-57
2024/02/10 01:55:09;;;;;;;9.30;6.03;;;12.50;99.90;;;;;;5053751;28;20956;-57
2024/02/10 01:57:36;;;;;;;5.77;5.27;;;12.40;99.90;;;;;;5053708;28;20501;-57
2024/02/10 02:00:06;;;;;;;7.77;5.37;;;12.50;99.90;;;;;;5053843;28;20568;-57
2024/02/10 02:02:33;;;;;;;9.50;5.27;;;12.50;99.90;;;;;;5054032;28;20544;-57
2024/02/10 02:05:03;;;;;;;6.97;5.23;;;12.40;99.90;;;;;;5053870;28;20449;-57
2024/02/10 02:07:31;;;;;;;5.50;5.00;;;12.40;99.90;;;;;;5053842;28;20465;-57
2024/02/10 02:09:59;;;;;;;7.73;5.23;;;12.50;99.90;;;;;;5054068;28;20442;-57
2024/02/10 02:12:27;;;;;;;6.90;4.50;;;12.50;99.90;;;;;;5053681;28;20955;-57
2024/02/10 02:14:54;;;;;;;8.97;5.00;;;12.40;99.90;;;;;;5053343;28;20955;-58
2024/02/10 02:17:22;;;;;;;9.27;5.30;;;12.50;99.90;;;;;;5053735;28;20552;-57
2024/02/10 02:19:48;;;;;;;5.17;4.67;;;12.40;99.90;;;;;;5053343;28;20536;-57
2024/02/10 02:22:18;;;;;;;6.80;5.03;;;12.40;99.90;;;;;;5053720;28;20586;-56
2024/02/10 02:24:46;;;;;;;7.07;4.27;;;12.50;99.90;;;;;;5053976;28;20488;-57
2024/02/10 02:27:13;;;;;;;7.07;5.27;;;12.50;99.90;;;;;;5053481;28;20462;-57
2024/02/10 02:29:40;;;;;;;10.27;4.20;;;12.50;99.90;;;;;;5053348;28;20445;-57
2024/02/10 02:32:08;;;;;;;4.90;4.40;;;12.40;99.90;;;;;;5053893;28;20446;-56
2024/02/10 02:34:35;;;;;;;4.30;3.90;;;12.40;99.90;;;;;;5053575;28;20537;-57
2024/02/10 02:37:03;;;;;;;6.63;4.00;;;12.30;99.90;;;;;;5053764;28;20896;-57
2024/02/10 02:39:30;;;;;;;7.13;3.83;;;12.30;99.90;;;;;;5053505;28;20544;-58
2024/02/10 02:41:59;;;;;;;5.50;4.50;;;12.40;99.90;;;;;;5053957;28;20538;-57
2024/02/10 02:44:26;;;;;;;4.40;3.70;;;12.30;99.90;;;;;;5053670;28;20441;-58
2024/02/10 02:46:54;;;;;;;7.93;4.27;;;12.30;99.90;;;;;;5054493;28;20533;-57
2024/02/10 02:49:23;;;;;;;6.53;4.40;;;12.30;99.90;;;;;;5054380;28;20453;-57
2024/02/10 02:51:50;;;;;;;6.53;4.50;;;12.30;99.90;;;;;;5054786;28;20495;-57
2024/02/10 02:54:19;;;;;;;6.07;4.13;;;12.30;99.90;;;;;;5053660;28;20963;-57
2024/02/10 02:56:46;;;;;;;4.03;3.50;;;12.20;99.90;;;;;;5054779;28;20481;-57
2024/02/10 02:59:15;;;;;;;4.27;3.87;;;12.20;99.90;;;;;;5054111;28;20445;-57
2024/02/10 03:01:42;;;;;;;3.80;3.30;;;12.10;99.90;;;;;;5056218;28;20473;-58
2024/02/10 03:04:09;;;;;;;3.30;2.97;;;12.10;99.90;;;;;;5059591;28;20449;-58
2024/02/10 03:06:36;;;;;;;5.73;2.97;;;12.10;99.90;;;;;;5059276;28;20469;-58
2024/02/10 03:09:03;;;;;;;5.60;3.40;;;12.10;99.90;;;;;;5059042;28;20448;-58
2024/02/10 03:11:30;;;;;;;4.13;3.30;;;12.00;99.90;;;;;;5058663;28;20529;-58
2024/02/10 03:14:02;;;;;;;3.60;3.30;;;12.00;99.90;;;;;;5058870;28;20449;-58
2024/02/10 03:16:33;;;;;;;5.33;4.07;;;12.00;99.90;;;;;;5060601;28;20472;-57
2024/02/10 03:19:01;;;;;;;4.93;2.70;;;11.90;99.90;;;;;;5063026;28;20430;-59
2024/02/10 03:21:28;;;;;;;3.80;3.00;;;12.00;99.90;;;;;;5062254;28;20564;-58
2024/02/10 03:24:02;;;;;;;4.00;3.60;;;11.90;99.90;;;;;;5058740;28;20446;-58
2024/02/10 03:26:30;;;;;;;5.33;3.40;;;11.90;99.90;;;;;;5055477;28;21001;-59
2024/02/10 03:28:57;;;;;;;4.70;3.57;;;11.90;99.90;;;;;;5055804;28;20453;-58
2024/02/10 03:31:25;;;;;;;4.50;3.30;;;11.80;99.90;;;;;;5055653;28;20441;-58
2024/02/10 03:33:53;;;;;;;3.33;3.03;;;11.80;99.90;;;;;;5055429;28;20441;-59
2024/02/10 03:36:20;;;;;;;5.87;3.13;;;11.80;99.90;;;;;;5055394;28;20445;-58
2024/02/10 03:38:47;;;;;;;4.23;3.07;;;11.70;99.90;;;;;;5055388;28;20450;-58
2024/02/10 03:41:15;;;;;;;5.50;3.60;;;11.70;99.90;;;;;;5055304;28;20577;-58
2024/02/10 03:43:42;;;;;;;6.07;3.40;;;11.70;99.90;;;;;;5055446;28;20532;-57
2024/02/10 03:46:09;;;;;;;3.20;2.90;;;11.60;99.90;;;;;;5055351;28;20445;-57
2024/02/10 03:48:39;;;;;;;3.40;2.63;;;11.60;99.90;;;;;;5055526;28;20444;-57
2024/02/10 03:51:08;;;;;;;3.03;2.60;;;11.60;99.90;;;;;;5055203;28;20484;-58
2024/02/10 03:53:35;;;;;;;3.43;3.20;;;11.60;99.90;;;;;;5054724;28;20461;-57
2024/02/10 03:56:02;;;;;;;3.40;3.00;;;11.50;99.90;;;;;;5054862;28;20450;-58
2024/02/10 03:58:29;;;;;;;3.40;2.73;;;11.60;99.90;;;;;;5055138;28;20450;-58
2024/02/10 04:00:57;;;;;;;3.20;2.77;;;11.60;99.90;;;;;;5055132;28;20854;-58
2024/02/10 04:03:28;;;;;;;3.13;2.83;;;11.50;99.90;;;;;;5055058;28;20787;-57
2024/02/10 04:05:54;;;;;;;4.60;3.37;;;11.50;99.90;;;;;;5055113;28;20822;-59
2024/02/10 04:08:24;;;;;;;4.73;3.20;;;11.50;99.90;;;;;;5055715;28;20457;-57
2024/02/10 04:10:51;;;;;;;4.93;3.70;;;11.50;99.90;;;;;;5058486;28;20441;-57
2024/02/10 04:13:18;;;;;;;6.40;3.43;;;11.50;99.90;;;;;;5056595;28;20540;-57
2024/02/10 04:15:45;;;;;;;4.20;3.80;;;11.50;99.90;;;;;;5056488;28;21015;-57
2024/02/10 04:18:12;;;;;;;3.60;3.30;;;11.50;99.90;;;;;;5055315;28;20464;-57
2024/02/10 04:20:41;;;;;;;6.60;3.17;;;11.50;99.90;;;;;;5055196;28;20564;-57
2024/02/10 04:23:10;;;;;;;8.93;3.40;;;11.40;99.90;;;;;;5055122;28;20477;-57
2024/02/10 04:25:39;;;;;;;5.57;4.03;;;11.40;99.90;;;;;;5055091;28;20450;-58
2024/02/10 04:28:06;;;;;;;6.53;3.53;;;11.40;99.90;;;;;;5054897;28;20469;-58
2024/02/10 04:30:33;;;;;;;3.97;3.63;;;11.40;99.90;;;;;;5055870;28;20473;-58
2024/02/10 04:33:01;;;;;;;5.30;3.77;;;11.40;99.90;;;;;;5055932;28;20463;-58
2024/02/10 04:35:28;;;;;;;5.40;3.60;;;11.40;99.90;;;;;;5055073;28;20499;-58
2024/02/10 04:37:55;;;;;;;3.63;2.93;;;11.40;99.90;;;;;;5054799;28;20468;-57
2024/02/10 04:40:24;;;;;;;3.50;3.00;;;11.30;99.90;;;;;;5054766;28;20455;-58
2024/02/10 04:42:54;;;;;;;3.77;3.47;;;11.30;99.90;;;;;;5054715;28;20444;-57
2024/02/10 04:45:28;;;;;;;6.40;3.40;;;11.30;99.90;;;;;;5054465;28;20445;-57
2024/02/10 04:47:56;;;;;;;3.20;2.90;;;11.30;99.90;;;;;;5054553;28;20461;-57
2024/02/10 04:50:23;;;;;;;3.80;3.10;;;11.30;99.90;;;;;;5054499;28;20533;-57
2024/02/10 04:52:50;;;;;;;3.10;2.80;;;11.30;99.90;;;;;;5054120;28;20460;-58
2024/02/10 04:55:18;;;;;;;3.73;3.10;;;11.30;99.90;;;;;;5054343;28;20441;-57
2024/02/10 04:57:46;;;;;;;3.70;3.40;;;11.20;99.90;;;;;;5054768;28;20551;-57
2024/02/10 05:00:16;;;;;;;3.00;2.70;;;11.30;99.90;;;;;;5054166;28;20456;-57
2024/02/10 05:02:44;;;;;;;6.90;3.10;;;11.20;99.90;;;;;;5054350;28;20478;-57
2024/02/10 05:05:11;;;;;;;2.63;2.30;;;11.30;99.90;;;;;;5054453;28;20449;-58
2024/02/10 05:07:43;;;;;;;3.93;2.77;;;11.20;99.90;;;;;;5053994;28;20469;-57
2024/02/10 05:10:11;;;;;;;2.80;2.47;;;11.20;99.90;;;;;;5054257;28;20421;-58
2024/02/10 05:12:39;;;;;;;2.50;2.30;;;11.20;99.90;;;;;;5054155;28;20434;-58
2024/02/10 05:15:09;;;;;;;2.60;2.40;;;11.20;99.90;;;;;;5053701;28;20822;-58
2024/02/10 05:17:41;;;;;;;2.97;2.67;;;11.20;99.90;;;;;;5053995;28;20462;-57
2024/02/10 05:20:13;;;;;;;3.83;2.60;;;11.10;99.90;;;;;;5054090;28;20422;-57
2024/02/10 05:22:42;;;;;;;4.00;3.50;;;11.10;99.90;;;;;;5054517;28;20499;-57
2024/02/10 05:25:11;;;;;;;2.43;2.30;;;11.10;99.90;;;;;;5053601;28;20505;-57
2024/02/10 05:27:39;;;;;;;2.90;2.70;;;11.10;99.90;;;;;;5054422;28;20462;-58
2024/02/10 05:30:10;;;;;;;4.50;3.30;;;11.10;99.90;;;;;;5053720;28;20445;-57
2024/02/10 05:32:38;;;;;;;3.70;3.30;;;11.10;99.90;;;;;;5053379;28;20449;-57
2024/02/10 05:35:10;;;;;;;4.10;3.80;;;11.10;99.90;;;;;;5053582;28;20447;-57
2024/02/10 05:37:38;;;;;;;4.60;3.20;;;11.00;99.90;;;;;;5053420;28;20493;-57
2024/02/10 05:40:09;;;;;;;4.80;3.50;;;11.00;99.90;;;;;;5053424;28;20449;-57
2024/02/10 05:42:36;;;;;;;3.67;3.37;;;11.00;99.90;;;;;;5053163;28;20473;-57
2024/02/10 05:45:06;;;;;;;3.53;3.13;;;11.00;99.90;;;;;;5053050;28;20448;-57
2024/02/10 05:47:34;;;;;;;4.40;3.57;;;11.00;99.90;;;;;;5053371;28;20828;-57
2024/02/10 05:50:08;;;;;;;2.60;2.40;;;11.00;99.90;;;;;;5053462;28;20453;-57
2024/02/10 05:52:38;;;;;;;5.37;3.13;;;11.00;99.90;;;;;;5052965;28;20454;-57
2024/02/10 05:55:06;;;;;;;3.03;2.73;;;10.90;99.90;;;;;;5053094;28;20893;-57
2024/02/10 05:57:36;;;;;;;2.50;2.30;;;10.90;99.90;;;;;;5053276;28;20469;-58
2024/02/10 06:00:04;;;;;;;2.20;2.00;;;10.80;99.90;;;;;;5053545;28;20797;-57
2024/02/10 06:02:31;;;;;;;3.10;2.57;;;10.80;99.90;;;;;;5054218;28;20482;-57
2024/02/10 06:04:58;;;;;;;2.50;2.30;;;10.80;99.90;;;;;;5054091;28;20437;-57
2024/02/10 06:07:27;;;;;;;2.47;2.27;;;10.80;99.90;;;;;;5052749;28;20461;-57
2024/02/10 06:09:54;;;;;;;2.43;2.23;;;10.80;99.90;;;;;;5053024;28;20500;-57
2024/02/10 06:12:21;;;;;;;2.43;2.23;;;10.80;99.90;;;;;;5052800;28;20438;-57
2024/02/10 06:14:48;;;;;;;2.33;2.13;;;10.70;99.90;;;;;;5052840;28;20455;-57
2024/02/10 06:17:15;;;;;;;2.50;2.07;;;10.70;99.90;;;;;;5052537;28;20463;-57
2024/02/10 06:19:41;;;;;;;2.20;2.00;;;10.70;99.90;;;;;;5052702;28;20437;-58
2024/02/10 06:22:09;;;;;;;4.20;1.90;;;10.60;99.90;;;;;;5052963;28;20492;-57
2024/02/10 06:24:40;;;;;;;3.43;3.10;;;10.60;99.90;;;;;;5052962;28;20527;-57
2024/02/10 06:27:07;;;;;;;2.70;2.10;;;10.60;99.90;;;;;;5052478;28;20869;-57
2024/02/10 06:29:34;;;;;;;2.33;2.13;;;10.60;99.90;;;;;;5053044;28;20437;-57
2024/02/10 06:32:03;;;;;;;3.20;2.30;;;10.60;99.90;;;;;;5052845;28;20445;-57
2024/02/10 06:34:30;;;;;;;3.17;2.83;;;10.60;99.90;;;;;;5052889;28;20441;-57
2024/02/10 06:36:57;;;;;;;7.83;5.10;;;10.60;99.90;;;;;;5054901;28;20449;-57
2024/02/10 06:39:24;;;;;;;3.87;3.53;;;10.60;99.90;;;;;;5056716;28;20515;-57
2024/02/10 06:41:52;;;;;;;3.30;2.67;;;10.60;99.90;;;;;;5056572;28;20575;-57
2024/02/10 06:44:20;;;;;;;2.10;2.00;;;10.60;99.90;;;;;;5056568;28;20444;-57
2024/02/10 06:46:48;;;;;;;2.83;1.83;;;10.60;99.90;;;;;;5056483;28;20461;-58
2024/02/10 06:49:20;;;;;;;4.53;2.27;;;10.60;99.90;;;;;;5056227;28;20457;-57
2024/02/10 06:51:47;;;;;;;2.93;2.00;;;10.60;99.90;;;;;;5056532;28;20442;-57
2024/02/10 06:54:14;;;;;;;2.53;2.33;;;10.60;99.90;;;;;;5056168;28;20532;-57
2024/02/10 06:56:44;;;;;;;3.20;2.40;;;10.60;99.90;;;;;;5056592;28;20457;-58
2024/02/10 06:59:15;;;;;;;3.50;2.23;;;10.60;99.90;;;;;;5056342;28;20448;-58
2024/02/10 07:01:41;;;;;;;3.63;2.50;;;10.60;99.90;;;;;;5056106;28;20462;-58
2024/02/10 07:04:08;;;;;;;5.80;3.00;;;10.50;99.90;;;;;;5055988;28;20445;-58
2024/02/10 07:06:35;;;;;;;4.13;2.97;;;10.50;99.90;;;;;;5056292;28;20469;-58
2024/02/10 07:09:03;;;;;;;3.23;2.93;;;10.50;99.90;;;;;;5056150;28;20528;-58
2024/02/10 07:11:31;;;;;;;3.80;2.77;;;10.50;99.90;;;;;;5056042;28;20442;-58
2024/02/10 07:13:58;;;;;;;6.73;3.17;;;10.50;99.90;;;;;;5055693;28;21023;-58
2024/02/10 07:16:26;;;;;;;3.40;3.07;;;10.50;99.90;;;;;;5056011;28;20553;-58
2024/02/10 07:18:53;;;;;;;3.20;2.80;;;10.50;99.90;;;;;;5056138;28;20441;-58
2024/02/10 07:21:19;;;;;;;4.27;3.77;;;10.50;99.90;;;;;;5055764;28;20446;-58
2024/02/10 07:23:46;;;;;;;3.93;3.63;;;10.50;99.90;;;;;;5055907;28;20450;-58
2024/02/10 07:26:13;;;;;;;6.27;3.40;;;10.50;99.90;;;;;;5057050;28;20932;-58
2024/02/10 07:28:40;;;;;;;7.97;4.20;;;10.50;99.90;;;;;;5058312;28;20448;-58
2024/02/10 07:31:07;;;;;;;4.77;3.90;;;10.50;99.90;;;;;;5058261;28;20453;-58
2024/02/10 07:33:35;;;;;;;3.83;3.37;;;10.50;99.90;;;;;;5057076;28;21007;-58
2024/02/10 07:36:02;;;;;;;8.37;4.10;;;10.60;99.90;;;;;;5056087;28;20523;-58
2024/02/10 07:38:29;;;;;;;4.67;3.70;;;10.60;99.90;;;;;;5055981;28;20450;-58
2024/02/10 07:40:56;;;;;;;5.30;3.67;;;10.70;99.90;;;;;;5055887;28;20446;-58
2024/02/10 07:43:23;;;;;;;4.30;3.90;;;10.70;99.90;;;;;;5055377;28;20488;-58
2024/02/10 07:45:52;;;;;;;7.63;3.93;;;10.80;99.90;;;;;;5055945;28;20489;-58
2024/02/10 07:48:19;;;;;;;4.60;4.10;;;10.80;99.90;;;;;;5055079;28;20885;-58
2024/02/10 07:50:49;;;;;;;6.03;5.03;;;10.90;99.90;;;;;;5055645;28;20790;-58
2024/02/10 07:53:16;;;;;;;5.80;4.80;;;10.90;99.90;;;;;;5055024;28;20453;-58
2024/02/10 07:55:46;;;;;;;6.10;4.10;;;11.00;99.90;;;;;;5055729;28;20471;-58
2024/02/10 07:58:15;;;;;;;5.00;4.50;;;11.00;99.90;;;;;;5055257;28;20462;-58
2024/02/10 08:00:42;;;;;;;5.03;4.53;;;11.10;99.90;;;;;;5055595;28;20438;-58
2024/02/10 08:03:11;;;;;;;5.97;5.37;;;11.10;99.90;;;;;;5055424;28;20485;-58
2024/02/10 08:05:40;;;;;;;5.80;5.27;;;11.20;99.90;;;;;;5055226;28;20864;-58
2024/02/10 08:08:10;;;;;;;5.80;5.20;;;11.20;99.90;;;;;;5055111;28;20476;-58
2024/02/10 08:10:37;;;;;;;6.67;5.97;;;11.30;99.90;;;;;;5055012;28;20481;-58
2024/02/10 08:13:04;;;;;;;7.17;6.57;;;11.40;99.90;;;;;;5054696;28;20438;-58
2024/02/10 08:15:32;;;;;;;6.77;6.17;;;11.40;99.90;;;;;;5054779;28;20528;-58
2024/02/10 08:18:05;;;;;;;7.47;6.50;;;11.50;99.90;;;;;;5054992;28;20466;-58
2024/02/10 08:20:31;;;;;;;8.23;6.97;;;11.50;99.90;;;;;;5054943;28;20520;-58
2024/02/10 08:22:58;;;;;;;9.13;8.33;;;11.60;99.90;;;;;;5054799;28;20485;-58
2024/02/10 08:25:28;;;;;;;7.73;7.03;;;11.60;99.90;;;;;;5054768;28;20449;-58
2024/02/10 08:27:56;;;;;;;8.00;7.20;;;11.70;99.90;;;;;;5054689;28;20465;-58
2024/02/10 08:30:24;;;;;;;8.50;7.50;;;11.70;99.90;;;;;;5054507;28;20454;-58
2024/02/10 08:32:53;;;;;;;8.73;7.77;;;11.80;99.90;;;;;;5054470;28;20448;-58
2024/02/10 08:35:20;;;;;;;7.93;7.10;;;11.80;99.90;;;;;;5054613;28;20490;-58
2024/02/10 08:37:47;;;;;;;12.07;8.17;;;11.90;99.90;;;;;;5054183;28;20497;-58
2024/02/10 08:40:14;;;;;;;7.70;7.00;;;12.00;99.90;;;;;;5054544;28;20437;-58
2024/02/10 08:42:42;;;;;;;8.23;7.43;;;12.10;99.90;;;;;;5054293;28;20481;-58
2024/02/10 08:45:11;;;;;;;7.87;7.17;;;12.20;99.90;;;;;;5054299;28;20453;-58
2024/02/10 08:47:38;;;;;;;7.27;6.53;;;12.30;99.90;;;;;;5054328;28;20881;-58
2024/02/10 08:50:08;;;;;;;7.03;6.43;;;12.30;99.90;;;;;;5054086;28;20445;-58
2024/02/10 08:52:37;;;;;;;7.90;6.43;;;12.40;99.90;;;;;;5053945;28;20450;-58
2024/02/10 08:55:05;;;;;;;8.03;7.23;;;12.50;99.90;;;;;;5054421;28;20815;-58
2024/02/10 08:57:36;;;;;;;7.10;5.73;;;12.60;99.90;;;;;;5053752;28;20478;-58
2024/02/10 09:00:10;;;;;;;6.37;5.30;;;12.60;99.90;;;;;;5053621;28;20430;-58
2024/02/10 09:02:37;;;;;;;8.93;5.70;;;12.70;99.90;;;;;;5054170;28;20461;-58
2024/02/10 09:05:06;;;;;;;7.00;6.40;;;12.70;99.90;;;;;;5053949;28;20448;-58
2024/02/10 09:07:32;;;;;;;7.40;6.63;;;12.70;99.90;;;;;;5053484;28;20496;-58
2024/02/10 09:09:59;;;;;;;6.67;6.07;;;12.70;99.90;;;;;;5053517;28;20437;-58
2024/02/10 09:12:26;;;;;;;6.57;5.93;;;12.80;99.90;;;;;;5053732;28;20286;-58
2024/02/10 09:14:53;;;;;;;7.00;6.30;;;12.80;99.90;;;;;;5053927;28;20500;-58
2024/02/10 09:17:23;;;;;;;6.40;5.83;;;12.80;99.90;;;;;;5053717;28;20479;-58
2024/02/10 09:19:50;;;;;;;5.93;5.33;;;12.80;99.90;;;;;;5053981;28;20495;-57
2024/02/10 09:22:17;;;;;;;8.40;6.83;;;12.90;99.90;;;;;;5053699;28;20481;-58
2024/02/10 09:24:44;;;;;;;20.30;5.87;;;12.90;99.90;;;;;;5053763;28;20525;-58
2024/02/10 09:27:11;;;;;;;6.13;5.63;;;12.90;99.90;;;;;;5053781;28;20470;-58
2024/02/10 09:29:38;;;;;;;7.73;5.67;;;13.00;99.90;;;;;;5053486;28;20433;-58
2024/02/10 09:32:05;;;;;;;7.40;5.60;;;13.00;99.90;;;;;;5053269;28;20533;-58
2024/02/10 09:34:33;;;;;;;5.60;5.07;;;13.00;99.90;;;;;;5053839;28;20445;-58
2024/02/10 09:37:00;;;;;;;8.40;5.80;;;13.10;99.90;;;;;;5053742;28;20468;-58
2024/02/10 09:39:27;;;;;;;7.07;5.73;;;13.00;99.90;;;;;;5053823;28;20445;-58
2024/02/10 09:41:59;;;;;;;6.27;5.67;;;13.10;99.90;;;;;;5053721;28;20890;-58
2024/02/10 09:44:26;;;;;;;8.00;4.83;;;13.10;99.90;;;;;;5053717;28;20521;-58
2024/02/10 09:46:56;;;;;;;6.20;5.20;;;13.10;99.90;;;;;;5054075;28;21009;-58
2024/02/10 09:49:25;;;;;;;5.30;4.80;;;13.10;99.90;;;;;;5054929;28;20438;-58
2024/02/10 09:51:54;;;;;;;5.23;4.73;;;13.20;99.90;;;;;;5054010;28;20491;-57
2024/02/10 09:54:21;;;;;;;5.43;4.93;;;13.20;99.90;;;;;;5053886;28;21030;-57
2024/02/10 09:56:47;;;;;;;7.20;5.70;;;13.30;99.90;;;;;;5053625;28;20544;-58
2024/02/10 09:59:17;;;;;;;6.60;5.93;;;13.30;99.90;;;;;;5054144;28;20444;-57
2024/02/10 10:01:44;;;;;;;6.70;5.60;;;13.30;99.90;;;;;;5055526;28;20781;-57
2024/02/10 10:04:12;;;;;;;5.40;4.90;;;13.40;99.90;;;;;;5054077;28;20476;-58
2024/02/10 10:06:43;;;;;;;5.60;4.70;;;13.50;99.90;;;;;;5053412;28;20850;-58
2024/02/10 10:09:12;;;;;;;4.80;4.40;;;13.60;99.90;;;;;;5054766;28;20493;-57
2024/02/10 10:11:41;;;;;;;5.30;4.90;;;13.70;99.90;;;;;;5057906;28;20446;-57
2024/02/10 10:14:08;;;;;;;5.57;5.10;;;13.80;99.90;;;;;;5057796;28;20452;-58
2024/02/10 10:16:35;;;;;;;6.57;5.37;;;13.90;99.90;;;;;;5057890;28;20466;-58
2024/02/10 10:19:01;;;;;;;7.37;5.40;;;14.00;99.90;;;;;;5058116;28;20468;-57
2024/02/10 10:21:30;;;;;;;6.73;5.40;;;14.20;99.90;;;;;;5057675;28;20452;-57
2024/02/10 10:23:57;;;;;;;5.97;5.43;;;14.30;99.90;;;;;;5057720;28;20554;-58
2024/02/10 10:26:26;;;;;;;8.10;4.70;;;14.40;99.90;;;;;;5057921;28;20819;-57
2024/02/10 10:28:53;;;;;;;4.90;4.40;;;14.50;99.90;;;;;;5057806;28;20476;-57
2024/02/10 10:31:20;;;;;;;4.17;3.77;;;14.60;99.90;;;;;;5058653;28;20505;-57
2024/02/10 10:33:48;;;;;;;4.83;4.37;;;14.70;99.90;;;;;;5057616;28;20452;-57
2024/02/10 10:36:16;;;;;;;4.77;4.37;;;14.80;99.90;;;;;;5057449;28;20450;-58
2024/02/10 10:38:45;;;;;;;4.10;3.73;;;14.90;99.90;;;;;;5058301;28;20449;-57
2024/02/10 10:41:18;;;;;;;3.90;3.60;;;15.00;99.90;;;;;;5058883;28;20447;-57
2024/02/10 10:43:51;;;;;;;5.10;4.03;;;15.10;99.90;;;;;;5059752;28;20994;-58
2024/02/10 10:46:19;;;;;;;3.70;3.40;;;15.20;99.90;;;;;;5059631;28;20506;-57
2024/02/10 10:48:47;;;;;;;5.00;4.07;;;15.40;99.90;;;;;;5058222;28;20503;-58
2024/02/10 10:51:14;;;;;;;4.57;4.00;;;15.50;99.90;;;;;;5059296;28;20965;-57
2024/02/10 10:53:45;;;;;;;4.27;3.87;;;15.60;99.90;;;;;;5058347;28;20483;-58
2024/02/10 10:56:16;;;;;;;3.50;3.10;;;15.70;99.90;;;;;;5057516;28;20425;-58
2024/02/10 10:58:49;;;;;;;3.90;3.50;;;15.80;99.90;;;;;;5057579;28;20821;-58
2024/02/10 11:01:20;;;;;;;3.83;3.53;;;15.90;99.90;;;;;;5056588;28;20437;-58
2024/02/10 11:03:48;;;;;;;3.80;3.50;;;16.00;99.90;;;;;;5055998;28;20497;-58
2024/02/10 11:06:14;;;;;;;3.67;3.37;;;16.00;99.90;;;;;;5056532;28;20441;-58
2024/02/10 11:08:41;;;;;;;4.00;3.30;;;16.10;99.90;;;;;;5055865;28;20493;-58
2024/02/10 11:11:10;;;;;;;6.07;3.97;;;16.10;99.90;;;;;;5056127;28;20445;-57
2024/02/10 11:13:38;;;;;;;3.90;3.47;;;16.10;99.90;;;;;;5055380;28;20480;-57
2024/02/10 11:16:12;;;;;;;3.50;3.20;;;16.20;99.90;;;;;;5056056;28;20442;-58
2024/02/10 11:18:40;;;;;;;3.60;3.00;;;16.30;99.90;;;;;;5056213;28;20801;-57
2024/02/10 11:21:10;;;;;;;3.70;3.27;;;16.30;99.90;;;;;;5056020;28;20448;-58
2024/02/10 11:23:38;;;;;;;3.00;2.53;;;16.40;99.90;;;;;;5055394;28;20564;-57
2024/02/10 11:26:07;;;;;;;3.07;2.77;;;16.40;99.90;;;;;;5055876;28;20441;-57
2024/02/10 11:28:37;;;;;;;3.90;3.13;;;16.30;99.90;;;;;;5055921;28;20445;-58
2024/02/10 11:31:09;;;;;;;3.50;3.20;;;16.30;99.90;;;;;;5055896;28;20461;-57
2024/02/10 11:33:36;;;;;;;7.67;3.50;;;16.30;99.90;;;;;;5055722;28;20440;-58
2024/02/10 11:36:04;;;;;;;4.00;3.30;;;16.30;99.90;;;;;;5055683;28;20454;-58
2024/02/10 11:38:31;;;;;;;3.40;3.10;;;16.30;99.90;;;;;;5055344;28;20813;-57
2024/02/10 11:40:57;;;;;;;4.63;3.57;;;16.30;99.90;;;;;;5055788;28;20453;-57
2024/02/10 11:43:26;;;;;;;4.67;3.53;;;16.30;99.90;;;;;;5055282;28;20483;-57
2024/02/10 11:45:53;;;;;;;3.60;2.90;;;16.20;99.90;;;;;;5055265;28;20870;-57
2024/02/10 11:48:22;;;;;;;3.17;2.87;;;16.30;99.90;;;;;;5055839;28;20480;-57
2024/02/10 11:50:50;;;;;;;6.33;3.57;;;16.40;99.90;;;;;;5055451;28;20970;-57
2024/02/10 11:53:17;;;;;;;4.00;3.00;;;16.50;99.90;;;;;;5055216;28;20450;-57
2024/02/10 11:55:47;;;;;;;3.00;2.80;;;16.70;99.90;;;;;;5055159;28;20868;-57
2024/02/10 11:58:18;;;;;;;4.83;3.03;;;16.80;99.90;;;;;;5055517;28;20863;-57
2024/02/10 12:00:45;;;;;;;4.43;3.50;;;17.00;99.90;;;;;;5055246;28;20500;-57
2024/02/10 12:03:15;;;;;;;3.43;3.13;;;17.20;99.90;;;;;;5055444;28;20497;-58
2024/02/10 12:05:43;;;;;;;3.30;3.03;;;17.30;99.90;;;;;;5055076;28;20904;-57
2024/02/10 12:08:10;;;;;;;6.20;3.20;;;17.60;99.90;;;;;;5054686;28;20466;-58
2024/02/10 12:10:38;;;;;;;3.83;3.00;;;17.70;99.90;;;;;;5055007;28;20453;-57
2024/02/10 12:13:06;;;;;;;4.57;3.30;;;17.90;99.90;;;;;;5055015;28;20494;-57
2024/02/10 12:15:33;;;;;;;3.03;2.83;;;18.10;99.90;;;;;;5055040;28;20434;-57
2024/02/10 12:18:01;;;;;;;3.03;2.73;;;18.20;99.80;;;;;;5054942;28;20461;-57
2024/02/10 12:20:29;;;;;;;2.97;2.77;;;18.30;99.50;;;;;;5054832;28;20532;-57
2024/02/10 12:22:57;;;;;;;2.53;2.33;;;18.30;99.10;;;;;;5054753;28;20830;-57
2024/02/10 12:25:24;;;;;;;3.83;2.90;;;18.40;98.70;;;;;;5054753;28;20442;-57
2024/02/10 12:27:51;;;;;;;3.53;2.53;;;18.40;98.20;;;;;;5054852;28;20463;-57
2024/02/10 12:30:19;;;;;;;2.70;2.50;;;18.40;98.10;;;;;;5054539;28;20548;-57
2024/02/10 12:32:48;;;;;;;3.60;3.10;;;18.40;98.00;;;;;;5054097;28;20449;-57
2024/02/10 12:35:16;;;;;;;3.83;3.50;;;18.40;98.00;;;;;;5054077;28;20445;-57
2024/02/10 12:37:45;;;;;;;3.73;3.30;;;18.40;97.90;;;;;;5054274;28;20488;-58
2024/02/10 12:40:14;;;;;;;3.00;2.80;;;18.30;97.80;;;;;;5054219;28;20956;-57
2024/02/10 12:42:43;;;;;;;3.10;2.87;;;18.30;97.90;;;;;;5054370;28;20531;-57
2024/02/10 12:45:12;;;;;;;3.60;3.30;;;18.20;97.90;;;;;;5054383;28;20485;-57
2024/02/10 12:47:39;;;;;;;3.17;2.87;;;18.20;98.00;;;;;;5053951;28;20971;-57
2024/02/10 12:50:08;;;;;;;2.50;2.30;;;18.10;98.10;;;;;;5054224;28;20442;-58